Sedov — UELO — position and weather

sailwx.info

Track history (hours):
 
Tides and Currents Weather Stations Pressure Air Temp Water Temp Dewpoint Dewpoint Depression Visibility Wind Speed Wind Dir Waves Ship Positions

Sedov (Russia)

Last reported at 2014-Sep-19 21:26 UTC. Time now 2014-Sep-19 21:59 UTC.
Position N 54°34' E 010°21'.

Length 118 m; draft 6.5 m.

Type: Sailing vessel. MMSI: 273510000.

Date/timePositionNaut miles runAvg speedWind from/ knotsBaromVisibWave heightAir tempDewpointWater temp
2014-Sep-19 21:26N 54°34' E 010°21'0 0.0
2014-Sep-19 20:32N 54°34' E 010°21'0 0.1
2014-Sep-19 19:26N 54°34' E 010°21'8 8.5
2014-Sep-19 18:33N 54°36' E 010°33'6 5.7
2014-Sep-19 17:34N 54°38' E 010°43'60 7.2
2014-Sep-19 09:12N 55°38' E 010°47'9 9.2
2014-Sep-19 08:15N 55°46' E 010°48'9 9.3
2014-Sep-19 07:19N 55°54' E 010°55'7 9.3
2014-Sep-19 06:33N 56°00' E 011°02'11 9.1
2014-Sep-19 05:22N 56°11' E 011°05'7 9.1
2014-Sep-19 04:33N 56°18' E 011°05'9 8.9
2014-Sep-19 03:33N 56°27' E 011°05'8 7.7
2014-Sep-19 02:33N 56°35' E 011°03'9 8.6
2014-Sep-19 01:32N 56°43' E 011°00'8 7.7
2014-Sep-19 00:33N 56°49' E 010°51'7 7.0
2014-Sep-18 23:33N 56°56' E 010°50'8 7.6
2014-Sep-18 22:33N 57°03' E 010°49'8 7.6
2014-Sep-18 21:34N 57°11' E 010°45'7 7.4
2014-Sep-18 20:33N 57°18' E 010°42'8 7.6
2014-Sep-18 19:33N 57°25' E 010°43'8 7.4
2014-Sep-18 18:31N 57°33' E 010°44'7 1.1
2014-Sep-18 12:16N 57°39' E 010°37'0 0.0
2014-Sep-18 08:28N 57°39' E 010°37'0 0.0
2014-Sep-18 06:07N 57°39' E 010°37'0 0.0
2014-Sep-18 05:32N 57°39' E 010°37'0 0.0
2014-Sep-18 04:26N 57°39' E 010°37'0 0.0
2014-Sep-18 01:14N 57°39' E 010°37'0 0.0
2014-Sep-18 00:26N 57°39' E 010°37'0 0.0
2014-Sep-17 22:11N 57°39' E 010°37'0 0.0
2014-Sep-17 21:29N 57°39' E 010°37'0 0.0
2014-Sep-17 15:08N 57°39' E 010°37'0 0.0
2014-Sep-17 09:14N 57°39' E 010°37'0 0.0
2014-Sep-17 08:14N 57°39' E 010°37'0 0.0
2014-Sep-17 07:32N 57°39' E 010°37'0 0.0
2014-Sep-17 05:32N 57°39' E 010°37'0 0.0
2014-Sep-17 04:29N 57°39' E 010°37'0 0.0
2014-Sep-17 03:32N 57°39' E 010°37'0 0.0
2014-Sep-16 22:32N 57°39' E 010°37'0 0.0
2014-Sep-16 21:23N 57°39' E 010°37'0 0.0
2014-Sep-16 20:29N 57°39' E 010°37'0 0.0
2014-Sep-16 19:26N 57°39' E 010°37'0 0.0
2014-Sep-16 18:32N 57°39' E 010°37'0 0.0
2014-Sep-16 16:26N 57°39' E 010°37'0 0.0
2014-Sep-16 12:08N 57°39' E 010°37'0 0.0
2014-Sep-16 09:05N 57°39' E 010°37'0 0.0
2014-Sep-16 08:29N 57°39' E 010°37'0 0.0
2014-Sep-16 07:29N 57°39' E 010°37'0 0.0
2014-Sep-16 06:14N 57°39' E 010°37'0 0.0
2014-Sep-16 05:32N 57°39' E 010°37'0 0.0
2014-Sep-16 04:29N 57°39' E 010°37'0 0.0
2014-Sep-16 03:32N 57°39' E 010°37'0 0.0
2014-Sep-16 00:29N 57°39' E 010°37'0 0.0
2014-Sep-15 21:32N 57°39' E 010°37'0 0.0
2014-Sep-15 20:33N 57°39' E 010°37'0 0.0
2014-Sep-15 19:33N 57°39' E 010°37'0 0.0
2014-Sep-15 18:33N 57°39' E 010°37'0 0.0
2014-Sep-15 17:32N 57°39' E 010°37'4 3.8
2014-Sep-15 16:33N 57°40' E 010°44'7 7.0
2014-Sep-15 15:33N 57°47' E 010°40'127 3.0
2014-Sep-13 21:33N 56°43' E 007°17'1 0.6
2014-Sep-13 20:33N 56°43' E 007°18'  
2014-Sep-10 12:19N 57°41' E 008°20'  
Track history (hours):
 
Tides and Currents Weather Stations Pressure Air Temp Water Temp Dewpoint Dewpoint Depression Visibility Wind Speed Wind Dir Waves Ship Positions

Sedov (Russia)

Last reported at 2014-Sep-19 21:26 UTC. Time now 2014-Sep-19 21:59 UTC.
Position N 54°34' E 010°21'.

Length 118 m; draft 6.5 m.

Type: Sailing vessel. MMSI: 273510000.

Date/timePositionNaut miles runAvg speedWind from/ knotsBaromVisibWave heightAir tempDewpointWater temp
2014-Sep-19 21:26N 54°34' E 010°21'0 0.0
2014-Sep-19 20:32N 54°34' E 010°21'0 0.1
2014-Sep-19 19:26N 54°34' E 010°21'8 8.5
2014-Sep-19 18:33N 54°36' E 010°33'6 5.7
2014-Sep-19 17:34N 54°38' E 010°43'60 7.2
2014-Sep-19 09:12N 55°38' E 010°47'9 9.2
2014-Sep-19 08:15N 55°46' E 010°48'9 9.3
2014-Sep-19 07:19N 55°54' E 010°55'7 9.3
2014-Sep-19 06:33N 56°00' E 011°02'11 9.1
2014-Sep-19 05:22N 56°11' E 011°05'7 9.1
2014-Sep-19 04:33N 56°18' E 011°05'9 8.9
2014-Sep-19 03:33N 56°27' E 011°05'8 7.7
2014-Sep-19 02:33N 56°35' E 011°03'9 8.6
2014-Sep-19 01:32N 56°43' E 011°00'8 7.7
2014-Sep-19 00:33N 56°49' E 010°51'7 7.0
2014-Sep-18 23:33N 56°56' E 010°50'8 7.6
2014-Sep-18 22:33N 57°03' E 010°49'8 7.6
2014-Sep-18 21:34N 57°11' E 010°45'7 7.4
2014-Sep-18 20:33N 57°18' E 010°42'8 7.6
2014-Sep-18 19:33N 57°25' E 010°43'8 7.4
2014-Sep-18 18:31N 57°33' E 010°44'7 1.1
2014-Sep-18 12:16N 57°39' E 010°37'0 0.0
2014-Sep-18 08:28N 57°39' E 010°37'0 0.0
2014-Sep-18 06:07N 57°39' E 010°37'0 0.0
2014-Sep-18 05:32N 57°39' E 010°37'0 0.0
2014-Sep-18 04:26N 57°39' E 010°37'0 0.0
2014-Sep-18 01:14N 57°39' E 010°37'0 0.0
2014-Sep-18 00:26N 57°39' E 010°37'0 0.0
2014-Sep-17 22:11N 57°39' E 010°37'0 0.0
2014-Sep-17 21:29N 57°39' E 010°37'0 0.0
2014-Sep-17 15:08N 57°39' E 010°37'0 0.0
2014-Sep-17 09:14N 57°39' E 010°37'0 0.0
2014-Sep-17 08:14N 57°39' E 010°37'0 0.0
2014-Sep-17 07:32N 57°39' E 010°37'0 0.0
2014-Sep-17 05:32N 57°39' E 010°37'0 0.0
2014-Sep-17 04:29N 57°39' E 010°37'0 0.0
2014-Sep-17 03:32N 57°39' E 010°37'0 0.0
2014-Sep-16 22:32N 57°39' E 010°37'0 0.0
2014-Sep-16 21:23N 57°39' E 010°37'0 0.0
2014-Sep-16 20:29N 57°39' E 010°37'0 0.0
2014-Sep-16 19:26N 57°39' E 010°37'0 0.0
2014-Sep-16 18:32N 57°39' E 010°37'0 0.0
2014-Sep-16 16:26N 57°39' E 010°37'0 0.0
2014-Sep-16 12:08N 57°39' E 010°37'0 0.0
2014-Sep-16 09:05N 57°39' E 010°37'0 0.0
2014-Sep-16 08:29N 57°39' E 010°37'0 0.0
2014-Sep-16 07:29N 57°39' E 010°37'0 0.0
2014-Sep-16 06:14N 57°39' E 010°37'0 0.0
2014-Sep-16 05:32N 57°39' E 010°37'0 0.0
2014-Sep-16 04:29N 57°39' E 010°37'0 0.0
2014-Sep-16 03:32N 57°39' E 010°37'0 0.0
2014-Sep-16 00:29N 57°39' E 010°37'0 0.0
2014-Sep-15 21:32N 57°39' E 010°37'0 0.0
2014-Sep-15 20:33N 57°39' E 010°37'0 0.0
2014-Sep-15 19:33N 57°39' E 010°37'0 0.0
2014-Sep-15 18:33N 57°39' E 010°37'0 0.0
2014-Sep-15 17:32N 57°39' E 010°37'4 3.8
2014-Sep-15 16:33N 57°40' E 010°44'7 7.0
2014-Sep-15 15:33N 57°47' E 010°40'127 3.0
2014-Sep-13 21:33N 56°43' E 007°17'1 0.6
2014-Sep-13 20:33N 56°43' E 007°18'  
2014-Sep-10 12:19N 57°41' E 008°20'  

Dump ship's entire track history